createdAt,value
2019-03-10T00:00:29.737Z,73.76
2019-03-10T00:02:58.234Z,73.48
2019-03-10T00:05:26.697Z,73.55
2019-03-10T00:07:55.452Z,73.75
2019-03-10T00:10:23.993Z,74.02
2019-03-10T00:12:52.517Z,73.61
2019-03-10T00:15:21.050Z,73.56
2019-03-10T00:17:49.622Z,73.69
2019-03-10T00:20:18.308Z,73.82
2019-03-10T00:22:46.838Z,74.03
2019-03-10T00:25:15.558Z,73.92
2019-03-10T00:27:44.028Z,73.93
2019-03-10T00:30:15.197Z,74.41
2019-03-10T00:32:45.291Z,74.22
2019-03-10T00:35:14.182Z,74.20
2019-03-10T00:37:42.667Z,74.21
2019-03-10T00:40:16.678Z,74.68
2019-03-10T00:43:06.305Z,74.80
2019-03-10T00:46:11.240Z,74.87
2019-03-10T00:48:57.965Z,74.45
2019-03-10T00:52:03.010Z,74.46
2019-03-10T00:54:31.594Z,74.67
2019-03-10T00:57:00.151Z,74.97
2019-03-10T00:59:28.714Z,74.56
2019-03-10T01:01:57.219Z,74.74
2019-03-10T01:04:25.801Z,74.84
2019-03-10T01:06:54.511Z,74.85
2019-03-10T01:09:23.073Z,74.85
2019-03-10T01:11:51.613Z,74.86
2019-03-10T01:14:20.142Z,75.77
2019-03-10T01:16:48.619Z,75.21
2019-03-10T01:19:17.942Z,74.94
2019-03-10T01:21:48.447Z,75.38
2019-03-10T01:24:16.951Z,75.21
2019-03-10T01:26:45.470Z,75.89
2019-03-10T01:29:14.137Z,75.58
2019-03-10T01:32:02.343Z,75.87
2019-03-10T01:34:51.955Z,75.32
2019-03-10T01:37:20.431Z,76.17
2019-03-10T01:39:48.911Z,75.29
2019-03-10T01:42:17.388Z,75.79
2019-03-10T01:44:45.898Z,75.27
2019-03-10T01:47:14.355Z,75.88
2019-03-10T01:49:42.834Z,75.67
2019-03-10T01:52:11.311Z,75.40
2019-03-10T01:54:39.800Z,76.57
2019-03-10T01:57:08.273Z,76.11
2019-03-10T01:59:36.766Z,76.15
2019-03-10T02:02:05.239Z,75.92
2019-03-10T02:04:35.403Z,76.11
2019-03-10T02:07:03.846Z,75.77
2019-03-10T02:09:32.334Z,75.90
2019-03-10T02:12:00.834Z,76.09
2019-03-10T02:14:29.427Z,76.03
2019-03-10T02:16:57.886Z,76.52
2019-03-10T02:19:26.406Z,76.38
2019-03-10T02:21:54.932Z,76.51
2019-03-10T02:24:24.296Z,76.30
2019-03-10T02:26:52.910Z,76.52
2019-03-10T02:29:21.367Z,76.37
2019-03-10T02:31:49.875Z,76.28
2019-03-10T02:34:18.371Z,76.71
2019-03-10T02:36:46.861Z,77.05
2019-03-10T02:39:15.343Z,75.98
2019-03-10T02:41:43.874Z,76.27
2019-03-10T02:44:12.363Z,76.48
2019-03-10T02:46:40.845Z,76.82
2019-03-10T02:49:09.324Z,76.26
2019-03-10T02:51:37.827Z,76.29
2019-03-10T02:54:06.308Z,76.53
2019-03-10T02:56:34.804Z,76.73
2019-03-10T02:59:03.269Z,76.54
2019-03-10T03:01:31.761Z,76.40
2019-03-10T03:04:00.210Z,76.34
2019-03-10T03:06:28.752Z,76.44
2019-03-10T03:08:57.224Z,76.31
2019-03-10T03:11:25.694Z,76.48
2019-03-10T03:13:54.164Z,76.14
2019-03-10T03:16:22.654Z,76.17
2019-03-10T03:18:51.143Z,76.06
2019-03-10T03:21:19.625Z,76.25
2019-03-10T03:23:48.102Z,76.08
2019-03-10T03:26:16.608Z,76.46
2019-03-10T03:28:45.058Z,76.01
2019-03-10T03:31:13.690Z,75.91
2019-03-10T03:33:42.242Z,75.78
2019-03-10T03:36:31.551Z,76.32
2019-03-10T03:39:18.098Z,76.52
2019-03-10T03:41:46.596Z,76.18
2019-03-10T03:44:15.082Z,76.79
2019-03-10T03:46:43.582Z,76.35
2019-03-10T03:49:12.043Z,77.18
2019-03-10T03:51:40.560Z,76.83
2019-03-10T03:54:09.000Z,77.39
2019-03-10T03:56:37.482Z,77.75
2019-03-10T03:59:05.961Z,78.41
2019-03-10T04:01:41.899Z,77.59
2019-03-10T04:04:10.397Z,77.16
2019-03-10T04:06:38.925Z,78.00
2019-03-10T04:09:08.831Z,78.52
2019-03-10T04:11:37.517Z,77.93
2019-03-10T04:14:06.001Z,78.32
2019-03-10T04:16:34.466Z,78.83
2019-03-10T04:19:02.935Z,78.01
2019-03-10T04:21:31.410Z,78.31
2019-03-10T04:23:59.937Z,78.75
2019-03-10T04:26:29.065Z,78.29
2019-03-10T04:28:57.579Z,78.93
2019-03-10T04:31:26.043Z,78.63
2019-03-10T04:33:54.582Z,79.46
2019-03-10T04:36:23.008Z,79.49
2019-03-10T04:38:51.502Z,79.46
2019-03-10T04:41:19.980Z,79.80
2019-03-10T04:43:48.463Z,79.52
2019-03-10T04:46:16.929Z,79.29
2019-03-10T04:48:45.420Z,79.45
2019-03-10T04:51:13.892Z,79.78
2019-03-10T04:53:42.374Z,80.22
2019-03-10T04:56:15.168Z,79.76
2019-03-10T04:58:45.294Z,79.54
2019-03-10T05:01:13.774Z,79.90
2019-03-10T05:03:42.265Z,79.56
2019-03-10T05:06:10.735Z,80.07
2019-03-10T05:08:39.217Z,79.73
2019-03-10T05:11:07.682Z,79.53
2019-03-10T05:13:36.176Z,80.11
2019-03-10T05:16:04.817Z,79.85
2019-03-10T05:18:33.334Z,80.17
2019-03-10T05:21:01.798Z,79.88
2019-03-10T05:23:32.348Z,80.07
2019-03-10T05:26:01.248Z,80.49
2019-03-10T05:28:31.675Z,79.97
2019-03-10T05:31:00.221Z,80.16
2019-03-10T05:33:28.781Z,81.02
2019-03-10T05:35:57.322Z,80.70
2019-03-10T05:38:25.823Z,81.33
2019-03-10T05:40:54.357Z,80.72
2019-03-10T05:43:22.860Z,80.10
2019-03-10T05:45:51.397Z,80.91
2019-03-10T05:48:19.899Z,81.28
2019-03-10T05:50:48.367Z,80.83
2019-03-10T05:53:16.845Z,80.31
2019-03-10T05:55:45.346Z,80.58
2019-03-10T05:58:13.831Z,80.37
2019-03-10T06:00:43.246Z,80.60
2019-03-10T06:03:12.003Z,80.76
2019-03-10T06:05:40.457Z,80.60
2019-03-10T06:08:08.925Z,80.70
2019-03-10T06:10:37.419Z,81.17
2019-03-10T06:13:05.887Z,80.55
2019-03-10T06:15:34.336Z,80.55
2019-03-10T06:18:12.794Z,80.82
2019-03-10T06:20:33.005Z,80.78
2019-03-10T06:23:01.487Z,80.40
2019-03-10T06:25:29.991Z,79.98
2019-03-10T06:27:58.470Z,80.47
2019-03-10T06:30:26.995Z,80.31
2019-03-10T06:32:55.445Z,80.58
2019-03-10T06:35:23.927Z,80.21
2019-03-10T06:37:52.409Z,80.21
2019-03-10T06:40:31.324Z,79.76
2019-03-10T06:42:51.104Z,79.39
2019-03-10T06:45:19.591Z,79.07
2019-03-10T06:47:48.084Z,78.81
2019-03-10T06:50:16.598Z,78.54
2019-03-10T06:52:45.085Z,78.76
2019-03-10T06:55:13.610Z,78.47
2019-03-10T06:57:42.076Z,78.35
2019-03-10T07:00:13.012Z,77.94
2019-03-10T07:02:41.479Z,78.28
2019-03-10T07:05:11.761Z,77.28
2019-03-10T07:07:43.234Z,77.26
2019-03-10T07:10:15.785Z,77.55
2019-03-10T07:12:44.256Z,77.50
2019-03-10T07:15:13.998Z,77.12
2019-03-10T07:17:42.461Z,76.77
2019-03-10T07:20:19.065Z,76.81
2019-03-10T07:22:47.542Z,77.19
2019-03-10T07:25:16.158Z,76.58
2019-03-10T07:28:02.275Z,76.91
2019-03-10T07:30:34.861Z,76.74
2019-03-10T07:33:20.079Z,76.19
2019-03-10T07:35:50.299Z,76.41
2019-03-10T07:38:20.501Z,76.05
2019-03-10T07:40:52.307Z,76.34
2019-03-10T07:43:25.121Z,76.32
2019-03-10T07:45:58.233Z,75.80
2019-03-10T07:48:34.093Z,75.71
2019-03-10T07:51:09.684Z,75.11
2019-03-10T07:53:39.808Z,75.04
2019-03-10T07:56:11.536Z,74.46
2019-03-10T07:58:57.286Z,74.19
2019-03-10T08:01:44.881Z,74.02
2019-03-10T08:04:17.836Z,74.03
2019-03-10T08:06:53.515Z,74.21
2019-03-10T08:09:38.979Z,73.09
2019-03-10T08:12:17.945Z,74.14
2019-03-10T08:14:50.813Z,73.20
2019-03-10T08:17:26.804Z,72.80
2019-03-10T08:19:59.908Z,73.55
2019-03-10T08:22:42.157Z,72.85
2019-03-10T08:25:18.708Z,72.83
2019-03-10T08:28:01.536Z,72.02
2019-03-10T08:30:31.128Z,70.87
2019-03-10T08:33:03.802Z,71.48
2019-03-10T08:35:42.942Z,70.54
2019-03-10T08:38:13.094Z,70.48
2019-03-10T08:40:55.169Z,68.87
2019-03-10T08:43:25.337Z,69.21
2019-03-10T08:45:58.161Z,70.08
2019-03-10T08:48:30.899Z,69.33
2019-03-10T08:51:03.818Z,69.08
2019-03-10T08:53:49.143Z,69.49
2019-03-10T08:56:22.371Z,68.62
2019-03-10T08:59:08.565Z,67.66
2019-03-10T09:01:38.724Z,67.02
2019-03-10T09:04:18.056Z,65.91
2019-03-10T09:07:04.047Z,65.17
2019-03-10T09:09:37.091Z,66.19
2019-03-10T09:12:10.213Z,65.26
2019-03-10T09:14:42.991Z,66.57
2019-03-10T09:17:13.137Z,66.25
2019-03-10T09:19:43.266Z,65.67
2019-03-10T09:22:13.376Z,66.20
2019-03-10T09:25:01.667Z,66.31
2019-03-10T09:27:48.317Z,66.01
2019-03-10T09:30:33.478Z,66.31
2019-03-10T09:33:06.413Z,65.67
2019-03-10T09:35:52.937Z,65.73
2019-03-10T09:38:23.152Z,63.40
2019-03-10T09:41:09.265Z,65.71
2019-03-10T09:43:51.366Z,64.91
2019-03-10T09:46:24.270Z,64.23
2019-03-10T09:48:57.212Z,64.61
2019-03-10T09:51:42.668Z,63.80
2019-03-10T09:54:29.101Z,64.88
2019-03-10T09:56:59.183Z,65.30
2019-03-10T09:59:45.739Z,65.12
2019-03-10T10:02:15.856Z,64.07
2019-03-10T10:04:46.135Z,64.27
2019-03-10T10:07:18.966Z,64.72
2019-03-10T10:10:05.328Z,63.54
2019-03-10T10:12:35.418Z,64.72
2019-03-10T10:15:06.889Z,64.59
2019-03-10T10:17:49.177Z,64.06
2019-03-10T10:20:19.311Z,64.30
2019-03-10T10:22:55.343Z,64.80
2019-03-10T10:25:28.254Z,64.56
2019-03-10T10:27:58.400Z,65.12
2019-03-10T10:30:34.293Z,64.68
2019-03-10T10:33:20.797Z,65.16
2019-03-10T10:36:07.266Z,64.39
2019-03-10T10:38:43.006Z,65.15
2019-03-10T10:41:19.034Z,64.70
2019-03-10T10:44:04.310Z,64.46
2019-03-10T10:46:43.075Z,64.77
2019-03-10T10:49:13.232Z,65.05
2019-03-10T10:51:59.517Z,65.35
2019-03-10T10:54:45.847Z,65.69
2019-03-10T10:57:24.862Z,65.89
2019-03-10T11:00:10.202Z,66.20
2019-03-10T11:02:40.281Z,66.79
2019-03-10T11:05:11.383Z,66.87
2019-03-10T11:07:53.686Z,68.12
2019-03-10T11:10:26.632Z,68.21
2019-03-10T11:13:11.847Z,68.93
2019-03-10T11:16:00.005Z,68.96
2019-03-10T11:18:46.335Z,69.10
2019-03-10T11:21:25.777Z,70.93
2019-03-10T11:23:58.569Z,72.06
2019-03-10T11:26:28.697Z,73.01
2019-03-10T11:29:01.568Z,70.85
2019-03-10T11:31:45.824Z,69.24
2019-03-10T11:34:30.740Z,70.05
2019-03-10T11:37:00.900Z,69.88
2019-03-10T11:39:46.437Z,70.48
2019-03-10T11:42:19.225Z,70.75
2019-03-10T11:44:49.382Z,70.29
2019-03-10T11:47:25.443Z,69.86
2019-03-10T11:49:55.568Z,69.98
2019-03-10T11:52:28.077Z,69.49
2019-03-10T11:54:58.176Z,69.02
2019-03-10T11:57:34.018Z,68.92
2019-03-10T12:00:04.120Z,68.93
2019-03-10T12:02:39.924Z,68.33
2019-03-10T12:05:24.718Z,68.51
2019-03-10T12:08:00.729Z,67.34
2019-03-10T12:10:29.208Z,68.82
2019-03-10T12:12:57.700Z,68.26
2019-03-10T12:15:26.163Z,66.07
2019-03-10T12:17:54.732Z,66.66
2019-03-10T12:20:23.232Z,67.23
2019-03-10T12:22:51.810Z,68.57
2019-03-10T12:25:20.273Z,70.40
2019-03-10T12:27:48.757Z,69.85
2019-03-10T12:30:17.359Z,70.38
2019-03-10T12:32:45.925Z,69.84
2019-03-10T12:35:14.415Z,69.70
2019-03-10T12:37:42.937Z,70.31
2019-03-10T12:40:12.837Z,70.23
2019-03-10T12:42:41.390Z,70.34
2019-03-10T12:45:11.224Z,70.18
2019-03-10T12:47:39.717Z,69.67
2019-03-10T12:50:20.615Z,71.36
2019-03-10T12:52:50.730Z,71.59
2019-03-10T12:55:19.316Z,73.27
2019-03-10T12:57:47.795Z,73.28
2019-03-10T13:00:16.891Z,74.22
2019-03-10T13:02:45.434Z,74.64
2019-03-10T13:05:13.903Z,75.58
2019-03-10T13:07:42.397Z,74.83
2019-03-10T13:10:12.654Z,74.96
2019-03-10T13:12:41.047Z,75.04
2019-03-10T13:15:11.729Z,76.90
2019-03-10T13:17:40.219Z,77.70
2019-03-10T13:20:10.978Z,77.16
2019-03-10T13:22:39.600Z,78.41
2019-03-10T13:25:12.666Z,77.70
2019-03-10T13:27:41.144Z,78.95
2019-03-10T13:30:12.251Z,77.94
2019-03-10T13:32:40.739Z,78.37
2019-03-10T13:35:09.351Z,78.52
2019-03-10T13:37:37.850Z,78.43
2019-03-10T13:40:11.766Z,78.22
2019-03-10T13:42:40.272Z,78.60
2019-03-10T13:45:14.497Z,77.74
2019-03-10T13:47:42.986Z,78.21
2019-03-10T13:50:13.590Z,78.06
2019-03-10T13:52:42.067Z,77.24
2019-03-10T13:55:12.921Z,77.88
2019-03-10T13:57:41.408Z,78.24
2019-03-10T14:00:13.551Z,78.67
2019-03-10T14:02:44.072Z,77.61
2019-03-10T14:05:12.599Z,78.28
2019-03-10T14:07:42.700Z,77.16
2019-03-10T14:10:12.184Z,77.07
2019-03-10T14:12:40.759Z,76.45
2019-03-10T14:15:13.808Z,76.67
2019-03-10T14:17:42.416Z,77.97
2019-03-10T14:20:15.716Z,78.43
2019-03-10T14:22:44.269Z,78.15
2019-03-10T14:25:14.697Z,79.37
2019-03-10T14:27:43.311Z,80.56
2019-03-10T14:30:17.359Z,80.40
2019-03-10T14:32:46.159Z,81.14
2019-03-10T14:35:15.892Z,80.57
2019-03-10T14:37:44.576Z,79.31
2019-03-10T14:40:18.481Z,80.08
2019-03-10T14:42:47.049Z,79.45
2019-03-10T14:45:19.437Z,78.74
2019-03-10T14:47:47.974Z,78.66
2019-03-10T14:50:18.294Z,80.47
2019-03-10T14:52:46.898Z,79.22
2019-03-10T14:55:21.018Z,79.34
2019-03-10T14:57:49.506Z,80.11
2019-03-10T15:00:23.396Z,80.65
2019-03-10T15:02:51.875Z,79.75
2019-03-10T15:05:20.357Z,79.95
2019-03-10T15:07:48.844Z,80.49
2019-03-10T15:10:17.354Z,78.85
2019-03-10T15:12:45.812Z,79.92
2019-03-10T15:15:22.850Z,81.44
2019-03-10T15:17:51.065Z,80.14
2019-03-10T15:20:21.608Z,81.53
2019-03-10T15:22:49.998Z,82.91
2019-03-10T15:25:19.743Z,82.36
2019-03-10T15:27:49.798Z,82.29
2019-03-10T15:30:19.855Z,80.18
2019-03-10T15:32:48.563Z,80.44
2019-03-10T15:35:17.137Z,80.35
2019-03-10T15:37:45.708Z,80.87
2019-03-10T15:40:18.450Z,81.43
2019-03-10T15:42:46.911Z,81.45
2019-03-10T15:45:16.539Z,80.84
2019-03-10T15:47:45.173Z,82.57
2019-03-10T15:50:22.700Z,81.54
2019-03-10T15:52:51.174Z,82.90
2019-03-10T15:55:19.748Z,83.56
2019-03-10T15:57:50.651Z,83.00
2019-03-10T16:00:21.495Z,84.48
2019-03-10T16:02:50.041Z,85.47
2019-03-10T16:05:18.540Z,86.08
2019-03-10T16:07:47.018Z,87.27
2019-03-10T16:10:16.282Z,87.74
2019-03-10T16:12:44.765Z,85.57
2019-03-10T16:15:24.850Z,86.84
2019-03-10T16:17:53.382Z,85.05
2019-03-10T16:20:21.887Z,85.16
2019-03-10T16:22:50.346Z,84.54
2019-03-10T16:25:19.583Z,85.00
2019-03-10T16:27:49.926Z,87.41
2019-03-10T16:30:19.525Z,85.87
2019-03-10T16:32:48.055Z,84.16
2019-03-10T16:35:16.818Z,84.49
2019-03-10T16:37:45.303Z,88.09
2019-03-10T16:40:15.629Z,86.21
2019-03-10T16:42:44.191Z,85.73
2019-03-10T16:45:20.935Z,85.21
2019-03-10T16:47:49.399Z,85.60
2019-03-10T16:50:19.435Z,85.28
2019-03-10T16:52:48.197Z,85.56
2019-03-10T16:55:16.838Z,85.00
2019-03-10T16:57:45.285Z,85.45
2019-03-10T17:00:15.154Z,85.12
2019-03-10T17:02:43.966Z,84.90
2019-03-10T17:05:18.187Z,85.72
2019-03-10T17:07:48.153Z,84.37
2019-03-10T17:10:24.985Z,85.38
2019-03-10T17:12:53.448Z,83.98
2019-03-10T17:15:23.943Z,85.06
2019-03-10T17:17:52.519Z,85.93
2019-03-10T17:20:22.908Z,85.29
2019-03-10T17:22:51.503Z,85.79
2019-03-10T17:25:19.941Z,85.22
2019-03-10T17:27:48.528Z,83.76
2019-03-10T17:30:21.415Z,84.54
2019-03-10T17:32:49.897Z,84.43
2019-03-10T17:35:19.310Z,84.15
2019-03-10T17:37:48.748Z,83.51
2019-03-10T17:40:20.590Z,83.06
2019-03-10T17:42:49.349Z,84.45
2019-03-10T17:45:22.920Z,83.82
2019-03-10T17:47:51.509Z,83.29
2019-03-10T17:50:20.324Z,83.36
2019-03-10T17:52:49.418Z,83.21
2019-03-10T17:55:38.689Z,83.43
2019-03-10T17:58:07.168Z,84.60
2019-03-10T18:00:36.979Z,83.95
2019-03-10T18:03:05.536Z,83.91
2019-03-10T18:05:34.011Z,84.57
2019-03-10T18:08:02.535Z,84.70
2019-03-10T18:10:30.991Z,85.69
2019-03-10T18:12:59.489Z,85.26
2019-03-10T18:15:27.949Z,85.70
2019-03-10T18:17:56.452Z,85.94
2019-03-10T18:20:25.208Z,86.22
2019-03-10T18:22:53.696Z,84.81
2019-03-10T18:25:22.160Z,85.51
2019-03-10T18:27:50.639Z,86.38
2019-03-10T18:30:20.449Z,86.09
2019-03-10T18:32:49.028Z,88.13
2019-03-10T18:35:17.770Z,89.22
2019-03-10T18:37:46.403Z,89.21
2019-03-10T18:40:26.214Z,90.20
2019-03-10T18:42:54.766Z,90.54
2019-03-10T18:45:23.292Z,90.06
2019-03-10T18:47:51.868Z,90.90
2019-03-10T18:50:24.413Z,89.17
2019-03-10T18:52:53.029Z,88.87
2019-03-10T18:55:21.696Z,90.35
2019-03-10T18:57:50.381Z,90.19
2019-03-10T19:00:26.480Z,90.68
2019-03-10T19:02:54.998Z,91.29
2019-03-10T19:05:23.480Z,90.97
2019-03-10T19:07:51.938Z,90.81
2019-03-10T19:10:20.522Z,90.84
2019-03-10T19:12:49.076Z,91.08
2019-03-10T19:15:28.103Z,90.51
2019-03-10T19:17:56.590Z,92.22
2019-03-10T19:20:25.340Z,92.23
2019-03-10T19:22:53.825Z,93.15
2019-03-10T19:25:22.310Z,93.15
2019-03-10T19:27:50.887Z,93.26
2019-03-10T19:30:20.804Z,93.14
2019-03-10T19:32:51.077Z,93.05
2019-03-10T19:35:19.541Z,92.95
2019-03-10T19:37:48.054Z,93.63
2019-03-10T19:40:18.759Z,93.65
2019-03-10T19:42:47.424Z,94.10
2019-03-10T19:45:21.057Z,94.26
2019-03-10T19:47:49.853Z,94.39
2019-03-10T19:50:20.790Z,94.67
2019-03-10T19:52:49.273Z,94.95
2019-03-10T19:55:17.742Z,94.71
2019-03-10T19:57:46.309Z,94.98
2019-03-10T20:00:19.765Z,94.52
2019-03-10T20:02:48.400Z,94.65
2019-03-10T20:05:17.198Z,94.71
2019-03-10T20:07:46.048Z,94.75
2019-03-10T20:10:18.833Z,94.20
2019-03-10T20:12:47.358Z,94.83
2019-03-10T20:15:18.044Z,94.99
2019-03-10T20:17:46.517Z,94.87
2019-03-10T20:20:16.956Z,94.69
2019-03-10T20:22:45.564Z,95.11
2019-03-10T20:25:15.696Z,94.71
2019-03-10T20:27:44.605Z,94.94
2019-03-10T20:30:18.610Z,95.10
2019-03-10T20:32:47.144Z,95.60
2019-03-10T20:35:15.666Z,95.16
2019-03-10T20:37:44.134Z,95.15
2019-03-10T20:40:20.874Z,94.67
2019-03-10T20:42:49.306Z,94.46
2019-03-10T20:45:17.789Z,95.05
2019-03-10T20:47:46.383Z,95.28
2019-03-10T20:50:16.982Z,95.11
2019-03-10T20:52:45.466Z,95.07
2019-03-10T20:55:14.916Z,95.09
2019-03-10T20:57:43.888Z,94.72
2019-03-10T21:00:15.093Z,94.73
2019-03-10T21:02:43.622Z,95.02
2019-03-10T21:05:12.626Z,95.18
2019-03-10T21:07:41.179Z,95.22
2019-03-10T21:10:15.041Z,95.67
2019-03-10T21:12:43.557Z,94.95
2019-03-10T21:15:14.213Z,94.82
2019-03-10T21:17:42.680Z,95.04
2019-03-10T21:20:16.845Z,94.63
2019-03-10T21:22:46.825Z,94.19
2019-03-10T21:25:17.943Z,93.76
2019-03-10T21:27:46.459Z,95.11
2019-03-10T21:30:19.941Z,94.82
2019-03-10T21:32:48.394Z,94.20
2019-03-10T21:35:18.161Z,94.17
2019-03-10T21:37:46.920Z,93.96
2019-03-10T21:40:32.762Z,94.42
2019-03-10T21:43:01.209Z,94.14
2019-03-10T21:45:30.096Z,94.56
2019-03-10T21:47:58.565Z,94.20
2019-03-10T21:50:27.065Z,94.43
2019-03-10T21:52:55.632Z,94.68
2019-03-10T21:55:24.114Z,94.90
2019-03-10T21:57:52.593Z,95.03
2019-03-10T22:00:21.373Z,94.86
2019-03-10T22:02:49.961Z,95.53
2019-03-10T22:05:18.777Z,95.44
2019-03-10T22:07:47.330Z,95.48
2019-03-10T22:10:26.890Z,95.01
2019-03-10T22:12:48.812Z,94.92
2019-03-10T22:15:23.606Z,94.36
2019-03-10T22:17:52.109Z,94.68
2019-03-10T22:20:21.053Z,95.38
2019-03-10T22:22:50.991Z,94.80
2019-03-10T22:25:19.506Z,94.98
2019-03-10T22:27:48.031Z,95.06
2019-03-10T22:30:21.292Z,94.48
2019-03-10T22:32:49.916Z,95.01
2019-03-10T22:35:18.452Z,95.05
2019-03-10T22:37:47.016Z,94.60
2019-03-10T22:40:16.840Z,95.38
2019-03-10T22:42:45.334Z,95.70
2019-03-10T22:45:17.948Z,94.94
2019-03-10T22:47:46.468Z,94.78
2019-03-10T22:50:15.889Z,94.50
2019-03-10T22:52:45.009Z,94.78
2019-03-10T22:55:14.837Z,94.56
2019-03-10T22:57:44.873Z,94.05
2019-03-10T23:00:45.772Z,94.44
2019-03-10T23:03:14.361Z,94.11
2019-03-10T23:05:42.848Z,94.82
2019-03-10T23:08:11.321Z,94.94
2019-03-10T23:10:39.899Z,94.67
2019-03-10T23:13:08.385Z,94.26
2019-03-10T23:15:36.861Z,93.81
2019-03-10T23:18:05.718Z,94.03
2019-03-10T23:20:34.209Z,94.32
2019-03-10T23:23:02.782Z,94.19
2019-03-10T23:25:31.259Z,93.87
2019-03-10T23:28:02.650Z,94.17
2019-03-10T23:30:31.170Z,93.66
2019-03-10T23:32:59.663Z,93.81
2019-03-10T23:35:28.160Z,94.03
2019-03-10T23:37:56.648Z,93.54
2019-03-10T23:40:25.183Z,93.54
2019-03-10T23:42:53.704Z,93.53
2019-03-10T23:45:22.166Z,93.92
2019-03-10T23:47:50.671Z,93.42
2019-03-10T23:50:19.776Z,93.23
2019-03-10T23:52:48.349Z,93.26
2019-03-10T23:55:16.897Z,92.60
2019-03-10T23:57:48.534Z,92.62
